createdAt,value
2023-02-11T00:01:19.942Z,41.07
2023-02-11T00:03:46.784Z,43.00
2023-02-11T00:06:13.485Z,42.07
2023-02-11T00:08:40.591Z,37.87
2023-02-11T00:11:07.700Z,38.73
2023-02-11T00:13:34.416Z,44.97
2023-02-11T00:16:09.540Z,40.60
2023-02-11T00:18:36.502Z,46.17
2023-02-11T00:21:08.480Z,39.53
2023-02-11T00:23:36.035Z,41.50
2023-02-11T00:26:02.709Z,40.37
2023-02-11T00:28:29.413Z,38.20
2023-02-11T00:30:59.002Z,41.93
2023-02-11T00:33:26.293Z,34.33
2023-02-11T00:35:53.088Z,40.83
2023-02-11T00:38:19.918Z,37.50
2023-02-11T00:40:46.570Z,38.33
2023-02-11T00:43:13.240Z,38.40
2023-02-11T00:45:39.888Z,41.90
2023-02-11T00:48:06.576Z,45.47
2023-02-11T00:50:33.266Z,45.33
2023-02-11T00:52:59.913Z,42.87
2023-02-11T00:55:26.585Z,40.67
2023-02-11T00:57:53.378Z,45.37
2023-02-11T01:00:20.208Z,44.87
2023-02-11T01:02:46.864Z,44.57
2023-02-11T01:05:13.698Z,42.87
2023-02-11T01:07:40.398Z,45.20
2023-02-11T01:10:07.338Z,48.03
2023-02-11T01:12:36.413Z,41.63
2023-02-11T01:15:04.638Z,42.40
2023-02-11T01:17:31.333Z,54.07
2023-02-11T01:19:57.984Z,44.83
2023-02-11T01:22:24.628Z,41.87
2023-02-11T01:24:51.280Z,46.20
2023-02-11T01:27:18.410Z,39.70
2023-02-11T01:29:45.106Z,41.20
2023-02-11T01:32:11.858Z,42.63
2023-02-11T01:34:38.510Z,43.93
2023-02-11T01:37:05.219Z,39.93
2023-02-11T01:39:34.010Z,43.80
2023-02-11T01:42:00.891Z,49.17
2023-02-11T01:44:30.500Z,46.23
2023-02-11T01:46:57.598Z,48.67
2023-02-11T01:49:32.623Z,46.70
2023-02-11T01:52:08.143Z,44.77
2023-02-11T01:54:59.006Z,45.90
2023-02-11T01:57:30.288Z,43.93
2023-02-11T02:00:11.711Z,38.63
2023-02-11T02:02:47.413Z,36.80
2023-02-11T02:05:26.075Z,41.07
2023-02-11T02:08:15.756Z,41.67
2023-02-11T02:10:45.387Z,36.40
2023-02-11T02:13:12.803Z,42.87
2023-02-11T02:15:45.672Z,43.03
2023-02-11T02:18:22.989Z,48.03
2023-02-11T02:21:26.741Z,42.17
2023-02-11T02:24:05.400Z,39.67
2023-02-11T02:27:16.053Z,42.40
2023-02-11T02:30:07.492Z,41.03
2023-02-11T02:32:58.819Z,45.20
2023-02-11T02:35:43.539Z,39.23
2023-02-11T02:38:13.145Z,43.40
2023-02-11T02:40:48.537Z,41.90
2023-02-11T02:43:16.746Z,43.00
2023-02-11T02:45:43.423Z,42.00
2023-02-11T02:48:31.774Z,40.83
2023-02-11T02:51:25.739Z,41.63
2023-02-11T02:54:27.445Z,40.47
2023-02-11T02:57:12.595Z,38.97
2023-02-11T02:59:54.408Z,39.27
2023-02-11T03:02:26.804Z,43.03
2023-02-11T03:05:33.508Z,40.97
2023-02-11T03:08:18.347Z,42.60
2023-02-11T03:10:51.240Z,42.77
2023-02-11T03:13:20.757Z,45.07
2023-02-11T03:15:52.144Z,38.70
2023-02-11T03:18:22.293Z,44.07
2023-02-11T03:20:53.241Z,46.57
2023-02-11T03:23:41.178Z,49.03
2023-02-11T03:26:12.297Z,44.93
2023-02-11T03:28:55.388Z,40.27
2023-02-11T03:31:36.323Z,42.37
2023-02-11T03:34:09.895Z,39.40
2023-02-11T03:36:49.372Z,41.93
2023-02-11T03:39:27.133Z,42.37
2023-02-11T03:41:58.528Z,43.80
2023-02-11T03:44:28.629Z,40.87
2023-02-11T03:46:56.335Z,42.90
2023-02-11T03:49:26.770Z,42.57
2023-02-11T03:51:55.056Z,38.07
2023-02-11T03:54:29.354Z,44.87
2023-02-11T03:56:58.995Z,40.43
2023-02-11T03:59:25.797Z,46.57
2023-02-11T04:01:52.799Z,40.97
2023-02-11T04:04:22.029Z,43.20
2023-02-11T04:06:48.909Z,38.90
2023-02-11T04:09:15.763Z,41.17
2023-02-11T04:11:42.456Z,46.33
2023-02-11T04:14:09.061Z,43.63
2023-02-11T04:16:35.780Z,41.03
2023-02-11T04:19:02.439Z,40.47
2023-02-11T04:21:29.138Z,41.50
2023-02-11T04:23:55.765Z,41.10
2023-02-11T04:26:22.471Z,45.07
2023-02-11T04:28:49.122Z,41.27
2023-02-11T04:31:15.887Z,40.83
2023-02-11T04:33:42.674Z,38.17
2023-02-11T04:36:09.486Z,39.40
2023-02-11T04:38:36.161Z,41.83
2023-02-11T04:41:02.870Z,41.00
2023-02-11T04:43:29.553Z,40.97
2023-02-11T04:45:59.172Z,42.13
2023-02-11T04:48:26.596Z,39.83
2023-02-11T04:50:53.411Z,39.13
2023-02-11T04:53:20.122Z,43.53
2023-02-11T04:55:50.669Z,44.97
2023-02-11T04:58:19.096Z,43.63
2023-02-11T05:00:46.233Z,43.90
2023-02-11T05:03:13.270Z,39.33
2023-02-11T05:05:41.212Z,42.93
2023-02-11T05:08:08.851Z,40.53
2023-02-11T05:10:35.910Z,43.53
2023-02-11T05:13:02.714Z,44.00
2023-02-11T05:15:29.743Z,40.00
2023-02-11T05:17:56.404Z,41.63
2023-02-11T05:20:23.063Z,41.20
2023-02-11T05:22:49.739Z,41.80
2023-02-11T05:25:16.494Z,46.67
2023-02-11T05:27:43.253Z,38.90
2023-02-11T05:30:11.310Z,41.77
2023-02-11T05:32:38.026Z,35.83
2023-02-11T05:35:04.975Z,39.70
2023-02-11T05:37:31.801Z,37.93
2023-02-11T05:39:58.470Z,42.77
2023-02-11T05:42:25.151Z,40.80
2023-02-11T05:44:51.913Z,42.80
2023-02-11T05:47:18.568Z,41.77
2023-02-11T05:49:45.233Z,42.53
2023-02-11T05:52:11.845Z,43.13
2023-02-11T05:54:38.529Z,45.27
2023-02-11T05:57:05.246Z,40.20
2023-02-11T05:59:31.896Z,39.63
2023-02-11T06:01:58.651Z,38.43
2023-02-11T06:04:25.727Z,39.20
2023-02-11T06:06:52.375Z,39.80
2023-02-11T06:09:19.072Z,41.77
2023-02-11T06:11:45.677Z,39.97
2023-02-11T06:14:12.275Z,41.60
2023-02-11T06:16:39.033Z,45.50
2023-02-11T06:19:06.204Z,40.67
2023-02-11T06:21:43.455Z,39.33
2023-02-11T06:24:11.442Z,42.30
2023-02-11T06:26:38.184Z,44.93
2023-02-11T06:29:04.813Z,37.97
2023-02-11T06:31:31.602Z,38.57
2023-02-11T06:33:59.212Z,35.93
2023-02-11T06:36:26.087Z,40.20
2023-02-11T06:38:53.237Z,41.90
2023-02-11T06:41:20.692Z,41.40
2023-02-11T06:43:47.729Z,40.83
2023-02-11T06:46:14.910Z,42.83
2023-02-11T06:48:44.399Z,37.83
2023-02-11T06:51:13.426Z,42.67
2023-02-11T06:53:42.863Z,44.27
2023-02-11T06:56:12.412Z,37.33
2023-02-11T06:58:39.234Z,44.57
2023-02-11T07:01:07.729Z,42.77
2023-02-11T07:03:36.405Z,39.37
2023-02-11T07:06:05.482Z,39.17
2023-02-11T07:08:38.028Z,39.63
2023-02-11T07:11:24.293Z,41.73
2023-02-11T07:13:52.139Z,37.23
2023-02-11T07:16:19.658Z,40.10
2023-02-11T07:18:47.455Z,37.17
2023-02-11T07:21:17.402Z,45.20
2023-02-11T07:23:44.299Z,45.10
2023-02-11T07:26:13.341Z,41.37
2023-02-11T07:28:40.975Z,49.37
2023-02-11T07:31:08.003Z,42.27
2023-02-11T07:33:36.153Z,44.27
2023-02-11T07:36:05.279Z,40.87
2023-02-11T07:38:32.983Z,52.47
2023-02-11T07:41:08.494Z,41.60
2023-02-11T07:43:35.765Z,40.70
2023-02-11T07:46:07.538Z,42.30
2023-02-11T07:48:34.524Z,42.07
2023-02-11T07:51:19.598Z,38.50
2023-02-11T07:53:46.699Z,43.30
2023-02-11T07:56:14.971Z,41.60
2023-02-11T07:58:43.002Z,41.77
2023-02-11T08:01:13.331Z,42.80
2023-02-11T08:03:41.938Z,43.97
2023-02-11T08:06:17.581Z,41.33
2023-02-11T08:08:44.563Z,41.80
2023-02-11T08:11:23.272Z,41.80
2023-02-11T08:13:50.618Z,39.87
2023-02-11T08:16:20.832Z,46.70
2023-02-11T08:18:48.433Z,37.33
2023-02-11T08:21:15.211Z,42.60
2023-02-11T08:23:43.548Z,44.37
2023-02-11T08:26:13.162Z,45.70
2023-02-11T08:28:41.831Z,51.13
2023-02-11T08:31:11.267Z,42.77
2023-02-11T08:33:40.371Z,46.87
2023-02-11T08:36:15.891Z,43.10
2023-02-11T08:38:42.696Z,43.73
2023-02-11T08:41:10.244Z,36.80
2023-02-11T08:43:37.516Z,41.10
2023-02-11T08:46:05.709Z,44.47
2023-02-11T08:48:32.556Z,38.03
2023-02-11T08:50:59.681Z,42.80
2023-02-11T08:53:26.923Z,48.27
2023-02-11T08:55:58.128Z,47.57
2023-02-11T08:58:24.788Z,48.30
2023-02-11T09:00:51.837Z,44.10
2023-02-11T09:03:18.870Z,42.93
2023-02-11T09:05:47.750Z,46.47
2023-02-11T09:08:15.362Z,40.90
2023-02-11T09:10:42.300Z,41.77
2023-02-11T09:13:09.410Z,43.50
2023-02-11T09:15:36.181Z,38.27
2023-02-11T09:18:03.606Z,37.17
2023-02-11T09:20:30.430Z,37.03
2023-02-11T09:22:58.559Z,36.83
2023-02-11T09:25:25.769Z,35.10
2023-02-11T09:27:53.732Z,35.93
2023-02-11T09:30:20.686Z,38.87
2023-02-11T09:32:47.372Z,33.80
2023-02-11T09:35:14.315Z,34.77
2023-02-11T09:37:41.022Z,36.80
2023-02-11T09:40:08.121Z,35.47
2023-02-11T09:43:03.058Z,36.77
2023-02-11T09:45:31.488Z,37.20
2023-02-11T09:48:17.778Z,35.87
2023-02-11T09:50:52.059Z,33.93
2023-02-11T09:53:25.562Z,34.97
2023-02-11T09:56:15.628Z,36.37
2023-02-11T09:58:44.596Z,28.90
2023-02-11T10:01:33.423Z,29.13
2023-02-11T10:04:26.274Z,30.10
2023-02-11T10:07:07.469Z,32.47
2023-02-11T10:09:34.086Z,28.33
2023-02-11T10:12:03.593Z,30.23
2023-02-11T10:14:55.248Z,26.80
2023-02-11T10:17:41.528Z,28.33
2023-02-11T10:20:33.628Z,26.93
2023-02-11T10:23:07.331Z,28.93
2023-02-11T10:25:43.661Z,29.93
2023-02-11T10:28:19.761Z,27.10
2023-02-11T10:31:01.288Z,26.57
2023-02-11T10:33:43.048Z,26.93
2023-02-11T10:36:12.699Z,25.57
2023-02-11T10:38:40.197Z,26.17
2023-02-11T10:41:07.181Z,27.17
2023-02-11T10:43:34.980Z,26.33
2023-02-11T10:46:04.728Z,27.00
2023-02-11T10:48:42.882Z,24.17
2023-02-11T10:51:21.311Z,24.13
2023-02-11T10:53:50.828Z,23.70
2023-02-11T10:56:28.365Z,26.57
2023-02-11T10:59:04.530Z,21.93
2023-02-11T11:01:41.686Z,23.63
2023-02-11T11:04:30.763Z,24.23
2023-02-11T11:07:09.555Z,23.73
2023-02-11T11:09:44.282Z,23.23
2023-02-11T11:12:32.583Z,24.67
2023-02-11T11:15:00.542Z,22.37
2023-02-11T11:17:31.112Z,25.33
2023-02-11T11:20:35.506Z,22.53
2023-02-11T11:23:21.508Z,23.47
2023-02-11T11:26:11.391Z,20.30
2023-02-11T11:28:51.951Z,22.53
2023-02-11T11:31:27.562Z,24.53
2023-02-11T11:34:00.165Z,24.33
2023-02-11T11:36:38.974Z,18.73
2023-02-11T11:39:27.084Z,19.80
2023-02-11T11:42:00.180Z,20.47
2023-02-11T11:44:32.835Z,20.70
2023-02-11T11:47:29.466Z,20.33
2023-02-11T11:50:14.289Z,22.93
2023-02-11T11:52:48.236Z,21.07
2023-02-11T11:55:21.499Z,19.90
2023-02-11T11:57:51.356Z,17.67
2023-02-11T12:00:52.472Z,18.47
2023-02-11T12:03:40.565Z,18.43
2023-02-11T12:06:50.975Z,17.07
2023-02-11T12:09:29.021Z,17.90
2023-02-11T12:12:24.013Z,16.03
2023-02-11T12:14:57.601Z,15.10
2023-02-11T12:17:24.204Z,15.33
2023-02-11T12:20:14.207Z,12.83
2023-02-11T12:22:53.923Z,12.00
2023-02-11T12:25:41.769Z,12.83
2023-02-11T12:28:27.969Z,12.77
2023-02-11T12:30:54.694Z,12.93
2023-02-11T12:33:48.551Z,15.03
2023-02-11T12:36:27.535Z,16.80
2023-02-11T12:38:57.308Z,16.97
2023-02-11T12:42:13.724Z,19.33
2023-02-11T12:45:13.929Z,18.97
2023-02-11T12:48:04.005Z,18.87
2023-02-11T12:50:43.113Z,15.40
2023-02-11T12:53:49.775Z,16.90
2023-02-11T12:56:32.717Z,15.47
2023-02-11T12:59:01.773Z,16.87
2023-02-11T13:01:40.889Z,18.33
2023-02-11T13:04:09.140Z,14.90
2023-02-11T13:06:49.177Z,15.37
2023-02-11T13:09:35.999Z,18.00
2023-02-11T13:12:27.161Z,14.77
2023-02-11T13:14:59.256Z,16.20
2023-02-11T13:17:34.081Z,16.83
2023-02-11T13:20:07.985Z,14.53
2023-02-11T13:22:40.663Z,15.83
2023-02-11T13:25:20.060Z,16.00
2023-02-11T13:28:15.774Z,14.57
2023-02-11T13:30:47.392Z,16.87
2023-02-11T13:33:19.641Z,14.50
2023-02-11T13:36:08.756Z,15.13
2023-02-11T13:38:36.611Z,14.23
2023-02-11T13:41:16.793Z,10.20
2023-02-11T13:43:44.268Z,11.57
2023-02-11T13:46:13.264Z,9.77
2023-02-11T13:48:47.427Z,17.17
2023-02-11T13:51:17.394Z,12.40
2023-02-11T13:53:54.432Z,10.23
2023-02-11T13:56:29.261Z,9.73
2023-02-11T13:58:56.829Z,9.23
2023-02-11T14:02:12.548Z,10.07
2023-02-11T14:05:22.626Z,11.33
2023-02-11T14:08:26.116Z,9.93
2023-02-11T14:10:55.400Z,13.07
2023-02-11T14:13:22.034Z,8.43
2023-02-11T14:15:48.938Z,14.33
2023-02-11T14:18:38.688Z,12.03
2023-02-11T14:21:19.389Z,14.47
2023-02-11T14:23:46.853Z,12.53
2023-02-11T14:26:29.085Z,12.77
2023-02-11T14:28:58.943Z,14.97
2023-02-11T14:31:34.948Z,13.43
2023-02-11T14:34:22.189Z,13.67
2023-02-11T14:37:00.825Z,14.80
2023-02-11T14:40:00.650Z,15.30
2023-02-11T14:42:29.692Z,14.30
2023-02-11T14:45:03.310Z,15.83
2023-02-11T14:47:45.110Z,16.87
2023-02-11T14:50:22.523Z,15.57
2023-02-11T14:52:50.059Z,15.83
2023-02-11T14:55:29.964Z,18.17
2023-02-11T14:58:15.424Z,17.10
2023-02-11T15:01:02.933Z,15.03
2023-02-11T15:03:48.029Z,16.77
2023-02-11T15:06:28.470Z,31.27
2023-02-11T15:09:13.177Z,19.10
2023-02-11T15:11:42.758Z,19.03
2023-02-11T15:14:28.898Z,18.90
2023-02-11T15:17:02.293Z,18.50
2023-02-11T15:19:34.592Z,21.07
2023-02-11T15:22:05.978Z,20.27
2023-02-11T15:24:35.264Z,21.53
2023-02-11T15:27:16.262Z,21.47
2023-02-11T15:29:46.243Z,19.63
2023-02-11T15:32:16.843Z,18.63
2023-02-11T15:34:47.975Z,20.07
2023-02-11T15:37:24.778Z,19.50
2023-02-11T15:39:52.944Z,24.07
2023-02-11T15:42:27.451Z,22.33
2023-02-11T15:45:09.476Z,19.90
2023-02-11T15:47:36.498Z,20.03
2023-02-11T15:50:03.648Z,20.73
2023-02-11T15:52:31.487Z,19.00
2023-02-11T15:55:01.652Z,21.43
2023-02-11T15:57:29.051Z,20.37
2023-02-11T15:59:56.416Z,19.40
2023-02-11T16:02:32.710Z,16.57
2023-02-11T16:05:06.267Z,17.33
2023-02-11T16:07:49.806Z,19.80
2023-02-11T16:10:36.986Z,18.40
2023-02-11T16:13:06.439Z,18.23
2023-02-11T16:15:54.242Z,16.10
2023-02-11T16:18:52.003Z,18.70
2023-02-11T16:21:39.063Z,18.37
2023-02-11T16:24:08.063Z,16.97
2023-02-11T16:26:43.181Z,23.00
2023-02-11T16:29:22.057Z,17.80
2023-02-11T16:31:50.373Z,18.73
2023-02-11T16:34:21.455Z,17.67
2023-02-11T16:36:49.261Z,18.97
2023-02-11T16:39:17.951Z,21.33
2023-02-11T16:41:45.010Z,21.53
2023-02-11T16:44:11.833Z,19.43
2023-02-11T16:46:39.035Z,19.97
2023-02-11T16:49:12.102Z,18.10
2023-02-11T16:51:41.368Z,19.90
2023-02-11T16:54:16.229Z,19.80
2023-02-11T16:56:43.656Z,21.37
2023-02-11T16:59:10.829Z,18.90
2023-02-11T17:01:39.779Z,18.77
2023-02-11T17:04:07.363Z,20.73
2023-02-11T17:06:35.451Z,20.07
2023-02-11T17:09:02.315Z,20.53
2023-02-11T17:11:29.036Z,21.27
2023-02-11T17:13:55.736Z,20.73
2023-02-11T17:16:25.121Z,19.73
2023-02-11T17:18:51.987Z,21.83
2023-02-11T17:21:18.749Z,23.53
2023-02-11T17:23:47.257Z,25.83
2023-02-11T17:26:13.919Z,22.63
2023-02-11T17:28:40.576Z,23.93
2023-02-11T17:31:09.294Z,20.03
2023-02-11T17:33:37.723Z,18.57
2023-02-11T17:36:08.463Z,20.73
2023-02-11T17:38:36.893Z,21.77
2023-02-11T17:41:05.370Z,25.10
2023-02-11T17:43:32.260Z,26.67
2023-02-11T17:45:59.072Z,21.00
2023-02-11T17:48:25.955Z,25.07
2023-02-11T17:50:52.642Z,22.57
2023-02-11T17:53:19.270Z,23.17
2023-02-11T17:55:45.916Z,22.80
2023-02-11T17:58:12.808Z,27.00
2023-02-11T18:00:39.707Z,24.37
2023-02-11T18:03:06.518Z,23.47
2023-02-11T18:05:37.633Z,25.43
2023-02-11T18:08:06.559Z,22.90
2023-02-11T18:10:35.266Z,24.80
2023-02-11T18:13:02.388Z,31.40
2023-02-11T18:15:29.146Z,25.13
2023-02-11T18:17:56.201Z,22.43
2023-02-11T18:20:22.989Z,19.40
2023-02-11T18:22:49.699Z,26.07
2023-02-11T18:25:17.389Z,21.73
2023-02-11T18:27:44.258Z,22.43
2023-02-11T18:30:16.812Z,21.37
2023-02-11T18:32:43.566Z,20.93
2023-02-11T18:35:14.833Z,22.57
2023-02-11T18:37:43.037Z,24.47
2023-02-11T18:40:11.060Z,26.07
2023-02-11T18:42:38.227Z,22.23
2023-02-11T18:45:09.659Z,26.43
2023-02-11T18:47:37.760Z,28.20
2023-02-11T18:50:09.262Z,25.83
2023-02-11T18:52:38.068Z,26.07
2023-02-11T18:55:06.271Z,22.87
2023-02-11T18:57:32.986Z,26.23
2023-02-11T18:59:59.790Z,24.23
2023-02-11T19:02:26.972Z,26.80
2023-02-11T19:04:53.664Z,27.83
2023-02-11T19:07:20.372Z,27.83
2023-02-11T19:09:47.243Z,26.57
2023-02-11T19:12:14.409Z,30.33
2023-02-11T19:14:41.134Z,27.27
2023-02-11T19:17:08.513Z,28.77
2023-02-11T19:19:36.521Z,30.00
2023-02-11T19:22:08.506Z,30.87
2023-02-11T19:24:37.248Z,28.90
2023-02-11T19:27:04.993Z,30.57
2023-02-11T19:29:33.380Z,34.67
2023-02-11T19:32:00.227Z,32.50
2023-02-11T19:34:27.111Z,31.77
2023-02-11T19:36:54.419Z,31.03
2023-02-11T19:39:23.857Z,26.83
2023-02-11T19:41:50.680Z,26.73
2023-02-11T19:44:17.444Z,27.97
2023-02-11T19:46:45.941Z,26.93
2023-02-11T19:49:16.222Z,31.63
2023-02-11T19:51:43.501Z,29.13
2023-02-11T19:54:10.464Z,30.43
2023-02-11T19:56:37.933Z,28.40
2023-02-11T19:59:05.094Z,27.37
2023-02-11T20:01:31.947Z,30.87
2023-02-11T20:03:58.817Z,34.10
2023-02-11T20:06:28.844Z,28.03
2023-02-11T20:09:00.430Z,32.00
2023-02-11T20:11:29.425Z,30.70
2023-02-11T20:13:57.256Z,28.43
2023-02-11T20:16:40.791Z,28.10
2023-02-11T20:19:16.859Z,31.00
2023-02-11T20:21:46.819Z,31.17
2023-02-11T20:24:14.477Z,26.13
2023-02-11T20:26:42.430Z,29.60
2023-02-11T20:29:09.901Z,30.20
2023-02-11T20:31:37.373Z,30.07
2023-02-11T20:34:04.168Z,29.13
2023-02-11T20:36:35.501Z,30.03
2023-02-11T20:39:04.855Z,28.33
2023-02-11T20:41:34.685Z,34.00
2023-02-11T20:44:07.257Z,31.83
2023-02-11T20:46:36.771Z,35.93
2023-02-11T20:49:03.578Z,31.87
2023-02-11T20:51:32.190Z,33.80
2023-02-11T20:53:59.839Z,31.20
2023-02-11T20:56:30.116Z,30.93
2023-02-11T20:58:58.597Z,34.90
2023-02-11T21:01:28.960Z,30.40
2023-02-11T21:03:58.946Z,34.27
2023-02-11T21:06:30.076Z,33.97
2023-02-11T21:08:57.552Z,29.40
2023-02-11T21:11:24.375Z,26.60
2023-02-11T21:13:51.078Z,35.70
2023-02-11T21:16:20.487Z,35.97
2023-02-11T21:18:48.588Z,33.53
2023-02-11T21:21:15.954Z,31.50
2023-02-11T21:23:42.874Z,38.83
2023-02-11T21:26:10.112Z,36.00
2023-02-11T21:28:39.783Z,31.60
2023-02-11T21:31:07.834Z,30.27
2023-02-11T21:33:34.755Z,33.57
2023-02-11T21:36:06.519Z,30.00
2023-02-11T21:38:33.215Z,36.07
2023-02-11T21:41:05.202Z,33.27
2023-02-11T21:43:32.368Z,27.30
2023-02-11T21:45:59.078Z,39.00
2023-02-11T21:48:26.689Z,35.20
2023-02-11T21:50:53.814Z,37.20
2023-02-11T21:53:20.688Z,34.20
2023-02-11T21:55:47.446Z,35.30
2023-02-11T21:58:14.624Z,26.87
2023-02-11T22:00:41.460Z,29.70
2023-02-11T22:03:08.511Z,27.97
2023-02-11T22:05:35.192Z,31.83
2023-02-11T22:08:01.936Z,32.37
2023-02-11T22:10:28.695Z,30.30
2023-02-11T22:12:55.496Z,26.27
2023-02-11T22:15:22.276Z,31.40
2023-02-11T22:17:48.913Z,33.97
2023-02-11T22:20:16.535Z,34.30
2023-02-11T22:22:43.198Z,33.80
2023-02-11T22:25:09.893Z,36.30
2023-02-11T22:27:36.620Z,31.07
2023-02-11T22:30:03.851Z,34.93
2023-02-11T22:32:30.640Z,35.93
2023-02-11T22:34:57.410Z,33.33
2023-02-11T22:37:24.098Z,33.97
2023-02-11T22:39:50.779Z,37.07
2023-02-11T22:42:17.458Z,33.37
2023-02-11T22:44:44.251Z,38.87
2023-02-11T22:47:10.907Z,32.17
2023-02-11T22:49:39.485Z,32.43
2023-02-11T22:52:06.137Z,31.73
2023-02-11T22:54:32.804Z,29.87
2023-02-11T22:56:59.546Z,29.87
2023-02-11T22:59:26.307Z,31.23
2023-02-11T23:01:53.170Z,32.50
2023-02-11T23:04:20.822Z,31.30
2023-02-11T23:06:47.717Z,33.73
2023-02-11T23:09:14.549Z,32.47
2023-02-11T23:11:41.634Z,29.47
2023-02-11T23:14:10.087Z,30.57
2023-02-11T23:16:37.107Z,29.80
2023-02-11T23:19:07.395Z,35.13
2023-02-11T23:21:36.751Z,33.27
2023-02-11T23:24:07.600Z,38.13
2023-02-11T23:26:34.645Z,34.93
2023-02-11T23:29:01.474Z,35.87
2023-02-11T23:31:29.726Z,34.27
2023-02-11T23:33:56.803Z,32.67
2023-02-11T23:36:23.936Z,33.03
2023-02-11T23:38:51.244Z,34.20
2023-02-11T23:41:18.765Z,34.30
2023-02-11T23:43:53.012Z,35.73
2023-02-11T23:46:21.724Z,32.20
2023-02-11T23:48:51.433Z,32.30
2023-02-11T23:51:19.175Z,30.63
2023-02-11T23:53:46.386Z,30.87
2023-02-11T23:56:20.099Z,31.53
2023-02-11T23:58:51.259Z,32.27
